Hauptseite
METAR-TAF:

METAR-TAF

Flughäfen :

Stornoway Airport

Stornoway, Schottland

Breite: 58-13N, Länge: 006-19W, Höhe: 9 m

Beobachtung

Neuester Wetterbericht von vor 21 Minuten, um 08:20 UTC
Wind 7 kt aus Ost
Temperatur 7°C
Luftfeuchtigkeit 66%
Luftdruck 1027 hPa
Sichtweite 10 km oder mehr

METAR: EGPO 090820Z AUTO 09007KT 9999 NCD 07/01 Q1027

Zeit: 09:41 (08:41 UTC)

Prognose

Neuester Wetterbericht von vor 3 Stunden und 45 Minuten, um 04:56 UTC
Gültige Prognose vom 09 um 06 UTC bis 09 um 15 UTC
Wind 6 kt aus Nord/Nordost
Sichtweite 10 km oder mehr
Aufgelockert bewölkt in der Höhe von 2000 ft

TAF: EGPO 090456Z 0906/0915 03006KT 9999 SCT020

Wetterbeobachtungen und Prognosen von mehr als 4000 Flughäfen (METAR und TAF Bericht).

Die verfügbaren Stationen werden durch gelbe und rote Markierungen auf der Karte dargestellt.

Führen Sie die Maus auf sie, um den Namen der Station zu sehen.

Darauf klicken, um die Beobachtung von Wetterbeobachtungen und Prognosen zu sehen.

Um die Karte zu ändern : klicken Sie auf den grünen Tasten mit einem schwarzen Kreuz Zum Vergrößern, auf den grünen Button mit einem Gedankenstrich zu verkleinern, oder auf die grünen Pfeile für benachbarte Karten.


METAR-TAF: